createdAt,value
2019-03-11T00:00:01.344Z,48.03
2019-03-11T00:02:34.473Z,47.63
2019-03-11T00:05:05.825Z,48.04
2019-03-11T00:07:36.023Z,48.03
2019-03-11T00:10:07.651Z,45.79
2019-03-11T00:12:37.828Z,46.68
2019-03-11T00:15:09.835Z,47.85
2019-03-11T00:17:40.055Z,45.81
2019-03-11T00:20:11.947Z,46.31
2019-03-11T00:22:42.094Z,48.31
2019-03-11T00:25:12.822Z,47.80
2019-03-11T00:27:42.974Z,48.07
2019-03-11T00:30:13.358Z,49.04
2019-03-11T00:32:43.873Z,54.53
2019-03-11T00:35:14.517Z,54.34
2019-03-11T00:37:44.853Z,53.52
2019-03-11T00:40:15.538Z,54.30
2019-03-11T00:42:45.688Z,54.23
2019-03-11T00:45:15.941Z,53.97
2019-03-11T00:47:46.510Z,53.56
2019-03-11T00:50:16.653Z,54.08
2019-03-11T00:52:48.436Z,54.03
2019-03-11T00:55:18.580Z,55.04
2019-03-11T00:57:55.081Z,55.50
2019-03-11T01:00:31.677Z,54.91
2019-03-11T01:03:03.128Z,57.54
2019-03-11T01:05:33.991Z,55.68
2019-03-11T01:08:05.579Z,56.20
2019-03-11T01:10:36.282Z,55.88
2019-03-11T01:13:06.527Z,57.60
2019-03-11T01:15:36.684Z,57.82
2019-03-11T01:18:06.840Z,57.73
2019-03-11T01:20:37.405Z,57.83
2019-03-11T01:23:09.526Z,58.06
2019-03-11T01:25:42.556Z,58.39
2019-03-11T01:28:12.757Z,62.89
2019-03-11T01:30:42.938Z,61.26
2019-03-11T01:33:13.097Z,59.11
2019-03-11T01:35:43.227Z,59.33
2019-03-11T01:38:14.159Z,59.35
2019-03-11T01:40:44.807Z,57.88
2019-03-11T01:43:14.947Z,56.28
2019-03-11T01:45:45.160Z,56.36
2019-03-11T01:48:15.290Z,54.58
2019-03-11T01:50:45.790Z,54.01
2019-03-11T01:53:18.984Z,56.56
2019-03-11T01:55:50.709Z,55.17
2019-03-11T01:58:21.951Z,53.70
2019-03-11T02:00:52.658Z,54.44
2019-03-11T02:03:24.351Z,53.45
2019-03-11T02:05:55.536Z,53.80
2019-03-11T02:08:28.349Z,53.22
2019-03-11T02:10:58.494Z,52.51
2019-03-11T02:13:28.653Z,51.65
2019-03-11T02:15:58.828Z,52.71
2019-03-11T02:18:29.422Z,52.12
2019-03-11T02:20:59.594Z,50.88
2019-03-11T02:23:31.429Z,50.88
2019-03-11T02:26:01.942Z,50.50
2019-03-11T02:28:32.493Z,49.83
2019-03-11T02:31:02.792Z,49.57
2019-03-11T02:33:33.401Z,50.05
2019-03-11T02:36:03.689Z,50.35
2019-03-11T02:38:35.363Z,49.92
2019-03-11T02:41:05.513Z,48.81
2019-03-11T02:43:35.826Z,49.43
2019-03-11T02:46:06.135Z,49.90
2019-03-11T02:48:36.769Z,50.11
2019-03-11T02:51:06.920Z,51.64
2019-03-11T02:53:39.123Z,52.34
2019-03-11T02:56:09.282Z,52.10
2019-03-11T02:58:39.932Z,51.40
2019-03-11T03:01:47.493Z,52.17
2019-03-11T03:04:23.135Z,51.84
2019-03-11T03:06:53.263Z,51.99
2019-03-11T03:09:23.493Z,50.52
2019-03-11T03:11:55.029Z,49.61
2019-03-11T03:14:25.204Z,49.77
2019-03-11T03:16:55.330Z,49.87
2019-03-11T03:19:25.537Z,49.93
2019-03-11T03:21:56.115Z,48.36
2019-03-11T03:24:26.691Z,49.73
2019-03-11T03:26:56.822Z,48.71
2019-03-11T03:29:28.298Z,50.68
2019-03-11T03:31:58.947Z,49.13
2019-03-11T03:34:29.138Z,48.81
2019-03-11T03:36:59.284Z,49.27
2019-03-11T03:39:29.447Z,49.30
2019-03-11T03:41:59.746Z,48.32
2019-03-11T03:44:30.387Z,48.72
2019-03-11T03:47:01.375Z,49.19
2019-03-11T03:49:31.953Z,50.04
2019-03-11T03:52:02.103Z,49.01
2019-03-11T03:54:34.360Z,50.03
2019-03-11T03:57:04.524Z,48.65
2019-03-11T03:59:35.432Z,49.18
2019-03-11T04:02:05.574Z,48.24
2019-03-11T04:04:37.325Z,48.88
2019-03-11T04:07:07.458Z,48.34
2019-03-11T04:09:37.617Z,47.86
2019-03-11T04:12:07.816Z,48.06
2019-03-11T04:14:38.386Z,47.09
2019-03-11T04:17:08.533Z,46.77
2019-03-11T04:19:39.675Z,46.84
2019-03-11T04:22:09.913Z,46.67
2019-03-11T04:24:42.059Z,46.89
2019-03-11T04:27:12.963Z,46.35
2019-03-11T04:29:43.130Z,45.90
2019-03-11T04:32:13.263Z,45.76
2019-03-11T04:34:43.441Z,46.94
2019-03-11T04:37:14.104Z,45.54
2019-03-11T04:39:47.102Z,46.37
2019-03-11T04:42:17.594Z,45.68
2019-03-11T04:44:47.746Z,45.53
2019-03-11T04:47:18.154Z,45.81
2019-03-11T04:49:48.298Z,47.57
2019-03-11T04:52:20.258Z,46.43
2019-03-11T04:54:51.918Z,48.37
2019-03-11T04:57:23.520Z,47.47
2019-03-11T04:59:54.798Z,47.67
2019-03-11T05:02:25.749Z,49.38
2019-03-11T05:04:57.796Z,49.01
2019-03-11T05:07:28.959Z,50.57
2019-03-11T05:09:59.452Z,49.62
2019-03-11T05:12:30.906Z,50.26
2019-03-11T05:15:02.623Z,49.24
2019-03-11T05:17:32.813Z,49.20
2019-03-11T05:20:03.341Z,49.54
2019-03-11T05:22:35.438Z,49.01
2019-03-11T05:25:06.107Z,49.47
2019-03-11T05:27:37.346Z,48.74
2019-03-11T05:30:09.380Z,48.47
2019-03-11T05:32:40.914Z,46.86
2019-03-11T05:35:11.049Z,46.41
2019-03-11T05:37:41.291Z,46.36
2019-03-11T05:40:13.455Z,46.26
2019-03-11T05:42:44.533Z,45.69
2019-03-11T05:45:15.679Z,47.15
2019-03-11T05:47:46.273Z,47.94
2019-03-11T05:50:16.421Z,48.38
2019-03-11T05:52:46.671Z,50.30
2019-03-11T05:55:17.950Z,51.16
2019-03-11T05:57:48.579Z,50.84
2019-03-11T06:00:22.831Z,50.36
2019-03-11T06:02:53.009Z,50.88
2019-03-11T06:05:24.565Z,51.56
2019-03-11T06:07:55.209Z,50.14
2019-03-11T06:10:26.778Z,51.11
2019-03-11T06:12:56.939Z,51.56
2019-03-11T06:15:27.093Z,51.87
2019-03-11T06:17:57.711Z,52.13
2019-03-11T06:20:33.626Z,52.45
2019-03-11T06:23:05.037Z,53.17
2019-03-11T06:25:35.614Z,51.91
2019-03-11T06:28:07.003Z,52.74
2019-03-11T06:30:38.639Z,52.06
2019-03-11T06:33:09.703Z,53.43
2019-03-11T06:35:40.566Z,52.19
2019-03-11T06:38:11.562Z,52.94
2019-03-11T06:40:41.720Z,52.97
2019-03-11T06:43:11.908Z,53.07
2019-03-11T06:45:42.072Z,55.63
2019-03-11T06:48:12.769Z,55.46
2019-03-11T06:50:42.931Z,57.76
2019-03-11T06:53:13.071Z,56.61
2019-03-11T06:55:44.093Z,57.60
2019-03-11T06:58:14.678Z,58.28
2019-03-11T07:00:44.903Z,57.64
2019-03-11T07:03:15.053Z,56.78
2019-03-11T07:05:45.216Z,57.07
2019-03-11T07:08:15.441Z,57.28
2019-03-11T07:10:46.043Z,57.45
2019-03-11T07:13:16.671Z,56.60
2019-03-11T07:15:46.864Z,56.36
2019-03-11T07:18:17.237Z,57.09
2019-03-11T07:20:47.589Z,56.95
2019-03-11T07:23:17.809Z,56.53
2019-03-11T07:25:48.248Z,56.79
2019-03-11T07:28:18.435Z,55.40
2019-03-11T07:30:48.631Z,54.70
2019-03-11T07:33:18.797Z,57.25
2019-03-11T07:35:48.934Z,56.92
2019-03-11T07:38:19.258Z,55.42
2019-03-11T07:40:49.873Z,55.17
2019-03-11T07:43:19.984Z,56.80
2019-03-11T07:45:51.392Z,55.06
2019-03-11T07:48:21.529Z,56.07
2019-03-11T07:50:51.675Z,54.92
2019-03-11T07:53:21.959Z,54.55
2019-03-11T07:55:53.559Z,55.34
2019-03-11T07:58:23.717Z,53.84
2019-03-11T08:00:54.396Z,54.83
2019-03-11T08:03:24.619Z,54.66
2019-03-11T08:05:56.121Z,54.87
2019-03-11T08:08:26.826Z,54.76
2019-03-11T08:10:58.152Z,54.08
2019-03-11T08:13:29.280Z,55.41
2019-03-11T08:15:59.460Z,55.38
2019-03-11T08:18:34.911Z,55.65
2019-03-11T08:21:02.943Z,55.36
2019-03-11T08:23:35.792Z,54.35
2019-03-11T08:26:06.791Z,54.36
2019-03-11T08:28:37.433Z,54.72
2019-03-11T08:31:08.418Z,54.39
2019-03-11T08:33:41.153Z,55.53
2019-03-11T08:36:12.427Z,56.70
2019-03-11T08:38:43.031Z,55.13
2019-03-11T08:41:13.209Z,55.02
2019-03-11T08:43:43.360Z,54.20
2019-03-11T08:46:13.570Z,56.94
2019-03-11T08:48:44.352Z,56.08
2019-03-11T08:51:14.490Z,54.37
2019-03-11T08:53:44.667Z,55.05
2019-03-11T08:56:15.983Z,55.19
2019-03-11T08:58:46.559Z,55.42
2019-03-11T09:01:16.732Z,57.15
2019-03-11T09:03:48.017Z,54.74
2019-03-11T09:06:18.352Z,57.51
2019-03-11T09:08:48.991Z,55.90
2019-03-11T09:11:19.744Z,56.07
2019-03-11T09:13:49.970Z,56.08
2019-03-11T09:16:20.605Z,55.17
2019-03-11T09:18:51.205Z,57.30
2019-03-11T09:21:22.149Z,56.61
2019-03-11T09:23:53.802Z,56.70
2019-03-11T09:26:24.774Z,55.63
2019-03-11T09:28:55.392Z,55.15
2019-03-11T09:31:25.536Z,57.00
2019-03-11T09:33:56.059Z,55.54
2019-03-11T09:36:26.216Z,55.00
2019-03-11T09:38:56.374Z,53.43
2019-03-11T09:41:27.927Z,52.24
2019-03-11T09:43:59.501Z,53.10
2019-03-11T09:46:29.917Z,53.34
2019-03-11T09:49:00.940Z,53.11
2019-03-11T09:51:35.489Z,52.22
2019-03-11T09:54:16.684Z,53.26
2019-03-11T09:56:50.096Z,51.98
2019-03-11T09:59:21.526Z,52.19
2019-03-11T10:01:51.660Z,52.20
2019-03-11T10:04:21.855Z,51.51
2019-03-11T10:06:52.602Z,50.76
2019-03-11T10:09:24.296Z,50.28
2019-03-11T10:11:54.478Z,50.15
2019-03-11T10:14:24.626Z,50.19
2019-03-11T10:16:54.802Z,50.56
2019-03-11T10:19:26.822Z,50.97
2019-03-11T10:21:57.102Z,50.13
2019-03-11T10:24:27.983Z,51.43
2019-03-11T10:26:58.252Z,51.66
2019-03-11T10:29:28.866Z,51.78
2019-03-11T10:31:59.070Z,50.95
2019-03-11T10:34:29.252Z,50.75
2019-03-11T10:36:59.403Z,50.02
2019-03-11T10:39:29.591Z,50.33
2019-03-11T10:42:00.192Z,50.18
2019-03-11T10:44:31.065Z,49.35
2019-03-11T10:47:01.594Z,50.16
2019-03-11T10:49:33.182Z,50.54
2019-03-11T10:52:03.801Z,51.96
2019-03-11T10:54:33.970Z,51.74
2019-03-11T10:57:05.215Z,51.57
2019-03-11T10:59:35.405Z,52.39
2019-03-11T11:02:06.318Z,52.31
2019-03-11T11:04:37.078Z,52.11
2019-03-11T11:07:07.233Z,52.81
2019-03-11T11:09:37.389Z,54.75
2019-03-11T11:12:08.062Z,54.19
2019-03-11T11:14:38.209Z,54.74
2019-03-11T11:17:08.450Z,53.88
2019-03-11T11:19:40.178Z,53.07
2019-03-11T11:22:10.351Z,53.13
2019-03-11T11:24:41.296Z,52.34
2019-03-11T11:27:11.444Z,52.92
2019-03-11T11:29:43.626Z,55.10
2019-03-11T11:32:14.218Z,54.20
2019-03-11T11:34:44.815Z,53.50
2019-03-11T11:37:16.717Z,51.85
2019-03-11T11:39:46.873Z,52.87
2019-03-11T11:42:17.149Z,50.82
2019-03-11T11:44:47.731Z,51.85
2019-03-11T11:47:17.879Z,50.04
2019-03-11T11:49:48.379Z,49.61
2019-03-11T11:52:18.977Z,50.17
2019-03-11T11:54:49.129Z,48.65
2019-03-11T11:57:21.660Z,46.99
2019-03-11T11:59:54.287Z,45.93
2019-03-11T12:02:24.234Z,45.12
2019-03-11T12:04:54.390Z,43.44
2019-03-11T12:07:24.668Z,43.24
2019-03-11T12:09:55.219Z,44.22
2019-03-11T12:12:25.382Z,42.90
2019-03-11T12:14:55.529Z,43.24
2019-03-11T12:17:25.779Z,43.08
2019-03-11T12:19:57.694Z,43.58
2019-03-11T12:22:28.290Z,43.32
2019-03-11T12:24:58.447Z,42.24
2019-03-11T12:27:32.774Z,41.63
2019-03-11T12:30:03.377Z,39.76
2019-03-11T12:32:34.521Z,39.44
2019-03-11T12:35:05.071Z,38.16
2019-03-11T12:37:35.681Z,36.02
2019-03-11T12:40:06.969Z,33.78
2019-03-11T12:42:37.157Z,34.21
2019-03-11T12:45:08.133Z,37.75
2019-03-11T12:47:38.321Z,37.26
2019-03-11T12:50:14.804Z,38.08
2019-03-11T12:52:45.649Z,41.92
2019-03-11T12:55:15.800Z,37.91
2019-03-11T12:57:47.031Z,36.07
2019-03-11T13:00:18.687Z,34.03
2019-03-11T13:02:49.038Z,34.47
2019-03-11T13:05:19.775Z,35.71
2019-03-11T13:07:50.496Z,37.10
2019-03-11T13:10:21.980Z,36.71
2019-03-11T13:12:52.390Z,38.68
2019-03-11T13:15:23.092Z,39.29
2019-03-11T13:17:53.355Z,39.69
2019-03-11T13:20:27.737Z,38.43
2019-03-11T13:22:57.966Z,36.54
2019-03-11T13:25:28.221Z,36.78
2019-03-11T13:27:59.864Z,34.68
2019-03-11T13:30:30.466Z,32.96
2019-03-11T13:33:00.627Z,34.12
2019-03-11T13:35:30.779Z,31.36
2019-03-11T13:38:00.942Z,31.34
2019-03-11T13:40:31.089Z,30.93
2019-03-11T13:43:02.333Z,29.51
2019-03-11T13:45:35.427Z,26.19
2019-03-11T13:48:05.581Z,24.05
2019-03-11T13:50:36.156Z,24.19
2019-03-11T13:53:06.412Z,22.79
2019-03-11T13:55:36.592Z,21.65
2019-03-11T13:58:08.593Z,21.18
2019-03-11T14:00:39.303Z,21.30
2019-03-11T14:03:09.798Z,20.98
2019-03-11T14:05:39.963Z,20.18
2019-03-11T14:08:10.095Z,19.12
2019-03-11T14:10:40.799Z,19.05
2019-03-11T14:13:11.029Z,18.01
2019-03-11T14:15:44.048Z,17.36
2019-03-11T14:18:14.233Z,19.77
2019-03-11T14:20:45.234Z,22.80
2019-03-11T14:23:16.359Z,24.38
2019-03-11T14:25:46.532Z,25.70
2019-03-11T14:28:16.705Z,28.56
2019-03-11T14:30:48.208Z,29.41
2019-03-11T14:33:18.455Z,30.50
2019-03-11T14:35:48.610Z,30.49
2019-03-11T14:38:20.359Z,31.91
2019-03-11T14:40:51.083Z,32.80
2019-03-11T14:43:21.561Z,32.96
2019-03-11T14:45:51.841Z,33.40
2019-03-11T14:48:22.596Z,33.92
2019-03-11T14:50:55.039Z,34.46
2019-03-11T14:53:26.260Z,34.13
2019-03-11T14:55:56.895Z,34.56
2019-03-11T14:58:29.552Z,35.08
2019-03-11T15:01:04.040Z,36.70
2019-03-11T15:03:35.922Z,38.24
2019-03-11T15:06:07.158Z,37.94
2019-03-11T15:08:37.378Z,37.16
2019-03-11T15:11:09.218Z,37.07
2019-03-11T15:13:39.526Z,36.86
2019-03-11T15:16:09.995Z,37.04
2019-03-11T15:18:40.171Z,37.15
2019-03-11T15:21:11.880Z,36.32
2019-03-11T15:23:42.693Z,36.14
2019-03-11T15:26:13.030Z,36.37
2019-03-11T15:28:43.294Z,38.09
2019-03-11T15:31:13.791Z,37.43
2019-03-11T15:33:44.010Z,36.08
2019-03-11T15:36:23.101Z,36.79
2019-03-11T15:38:53.377Z,37.13
2019-03-11T15:41:23.529Z,37.01
2019-03-11T15:43:53.928Z,38.00
2019-03-11T15:46:24.051Z,38.38
2019-03-11T15:48:54.227Z,39.70
2019-03-11T15:51:24.862Z,40.18
2019-03-11T15:53:55.442Z,39.40
2019-03-11T15:56:26.098Z,40.31
2019-03-11T15:58:57.505Z,38.88
2019-03-11T16:01:27.649Z,38.10
2019-03-11T16:03:58.897Z,39.68
2019-03-11T16:06:29.607Z,39.24
2019-03-11T16:09:02.154Z,38.17
2019-03-11T16:11:34.352Z,38.42
2019-03-11T16:14:04.557Z,39.17
2019-03-11T16:16:35.200Z,38.53
2019-03-11T16:19:05.367Z,38.92
2019-03-11T16:21:36.772Z,38.67
2019-03-11T16:24:06.930Z,39.40
2019-03-11T16:26:37.083Z,40.31
2019-03-11T16:29:08.630Z,40.69
2019-03-11T16:31:39.416Z,40.49
2019-03-11T16:34:09.561Z,39.76
2019-03-11T16:36:39.765Z,39.54
2019-03-11T16:39:10.060Z,40.01
2019-03-11T16:41:40.402Z,40.56
2019-03-11T16:44:12.131Z,41.28
2019-03-11T16:46:42.750Z,41.67
2019-03-11T16:49:12.918Z,42.19
2019-03-11T16:51:43.699Z,42.42
2019-03-11T16:54:13.877Z,41.15
2019-03-11T16:56:44.027Z,41.79
2019-03-11T16:59:17.207Z,41.74
2019-03-11T17:01:48.872Z,41.90
2019-03-11T17:04:19.140Z,42.53
2019-03-11T17:06:49.297Z,42.48
2019-03-11T17:09:19.487Z,42.12
2019-03-11T17:11:49.760Z,41.94
2019-03-11T17:14:20.389Z,42.66
2019-03-11T17:16:50.920Z,44.98
2019-03-11T17:19:21.282Z,44.33
2019-03-11T17:21:51.528Z,44.05
2019-03-11T17:24:21.693Z,44.05
2019-03-11T17:26:52.180Z,43.95
2019-03-11T17:29:22.758Z,44.60
2019-03-11T17:31:52.928Z,44.25
2019-03-11T17:34:23.639Z,44.61
2019-03-11T17:36:53.770Z,43.96
2019-03-11T17:39:23.977Z,43.06
2019-03-11T17:41:54.612Z,44.69
2019-03-11T17:44:25.299Z,45.87
2019-03-11T17:46:55.467Z,44.92
2019-03-11T17:49:26.208Z,44.35
2019-03-11T17:51:56.348Z,44.14
2019-03-11T17:54:26.523Z,43.28
2019-03-11T17:56:56.723Z,43.24
2019-03-11T17:59:28.184Z,43.26
2019-03-11T18:01:58.759Z,43.73
2019-03-11T18:04:28.951Z,43.47
2019-03-11T18:06:59.717Z,43.84
2019-03-11T18:09:30.373Z,42.96
2019-03-11T18:12:00.595Z,42.18
2019-03-11T18:14:30.760Z,41.71
2019-03-11T18:17:01.285Z,41.57
2019-03-11T18:19:32.405Z,42.17
2019-03-11T18:22:04.127Z,41.70
2019-03-11T18:24:34.354Z,41.51
2019-03-11T18:27:04.530Z,40.90
2019-03-11T18:29:35.791Z,40.41
2019-03-11T18:32:06.579Z,40.42
2019-03-11T18:34:36.724Z,40.23
2019-03-11T18:37:07.345Z,40.98
2019-03-11T18:39:38.010Z,40.68
2019-03-11T18:42:08.176Z,40.06
2019-03-11T18:44:38.351Z,40.83
2019-03-11T18:47:09.006Z,42.01
2019-03-11T18:49:40.388Z,41.40
2019-03-11T18:52:11.909Z,41.09
2019-03-11T18:54:42.173Z,40.93
2019-03-11T18:57:12.319Z,40.94
2019-03-11T18:59:44.233Z,40.59
2019-03-11T19:02:14.870Z,42.09
2019-03-11T19:04:45.034Z,41.55
2019-03-11T19:07:15.376Z,42.27
2019-03-11T19:09:45.573Z,41.21
2019-03-11T19:12:16.808Z,41.17
2019-03-11T19:14:47.041Z,41.35
2019-03-11T19:17:18.827Z,41.14
2019-03-11T19:19:49.012Z,40.89
2019-03-11T19:22:19.722Z,40.83
2019-03-11T19:24:50.432Z,40.71
2019-03-11T19:27:20.614Z,40.33
2019-03-11T19:29:51.156Z,42.47
2019-03-11T19:32:21.878Z,41.44
2019-03-11T19:34:54.738Z,41.73
2019-03-11T19:37:24.968Z,42.10
2019-03-11T19:39:55.457Z,41.91
2019-03-11T19:42:28.141Z,42.13
2019-03-11T19:44:58.346Z,41.80
2019-03-11T19:47:28.752Z,41.61
2019-03-11T19:49:59.429Z,41.17
2019-03-11T19:52:30.016Z,40.90
2019-03-11T19:55:00.733Z,41.15
2019-03-11T19:57:32.588Z,41.93
2019-03-11T20:00:04.841Z,41.93
2019-03-11T20:02:35.075Z,41.94
2019-03-11T20:05:06.134Z,42.21
2019-03-11T20:07:37.400Z,41.10
2019-03-11T20:10:08.623Z,41.17
2019-03-11T20:12:38.857Z,42.07
2019-03-11T20:15:10.388Z,41.82
2019-03-11T20:17:41.019Z,41.35
2019-03-11T20:20:12.307Z,41.94
2019-03-11T20:22:42.701Z,41.41
2019-03-11T20:25:15.453Z,40.32
2019-03-11T20:27:46.496Z,40.19
2019-03-11T20:30:20.042Z,39.77
2019-03-11T20:32:50.760Z,40.72
2019-03-11T20:35:21.047Z,40.65
2019-03-11T20:37:51.771Z,39.88
2019-03-11T20:40:24.330Z,40.82
2019-03-11T20:42:54.614Z,41.45
2019-03-11T20:45:26.238Z,40.94
2019-03-11T20:47:57.017Z,40.66
2019-03-11T20:50:27.270Z,40.78
2019-03-11T20:52:58.610Z,41.53
2019-03-11T20:55:29.986Z,41.53
2019-03-11T20:58:02.882Z,40.69
2019-03-11T21:00:34.637Z,40.36
2019-03-11T21:03:05.474Z,41.63
2019-03-11T21:05:36.719Z,41.02
2019-03-11T21:08:07.263Z,41.07
2019-03-11T21:10:38.768Z,40.60
2019-03-11T21:13:09.736Z,40.94
2019-03-11T21:15:41.098Z,40.91
2019-03-11T21:18:11.398Z,40.48
2019-03-11T21:20:41.563Z,40.63
2019-03-11T21:23:13.626Z,40.62
2019-03-11T21:25:44.298Z,40.21
2019-03-11T21:28:14.514Z,40.26
2019-03-11T21:30:45.333Z,40.56
2019-03-11T21:33:15.827Z,41.00
2019-03-11T21:35:46.491Z,40.64
2019-03-11T21:38:16.966Z,41.15
2019-03-11T21:40:47.758Z,41.55
2019-03-11T21:43:18.300Z,41.51
2019-03-11T21:45:49.957Z,41.02
2019-03-11T21:48:20.123Z,40.58
2019-03-11T21:50:50.351Z,40.58
2019-03-11T21:53:20.887Z,40.66
2019-03-11T21:55:54.133Z,40.72
2019-03-11T21:58:25.047Z,41.43
2019-03-11T22:00:58.179Z,41.93
2019-03-11T22:03:30.000Z,41.29
2019-03-11T22:06:00.968Z,41.31
2019-03-11T22:08:31.196Z,41.10
2019-03-11T22:11:02.073Z,40.79
2019-03-11T22:13:33.097Z,41.39
2019-03-11T22:16:03.995Z,40.78
2019-03-11T22:18:35.198Z,41.07
2019-03-11T22:21:05.712Z,41.12
2019-03-11T22:23:35.923Z,41.11
2019-03-11T22:26:06.552Z,41.61
2019-03-11T22:28:37.246Z,41.66
2019-03-11T22:31:07.408Z,41.43
2019-03-11T22:33:37.591Z,41.13
2019-03-11T22:36:09.467Z,40.98
2019-03-11T22:38:39.755Z,41.14
2019-03-11T22:41:10.149Z,42.32
2019-03-11T22:43:40.403Z,41.80
2019-03-11T22:46:13.772Z,41.24
2019-03-11T22:48:45.030Z,41.29
2019-03-11T22:51:15.338Z,41.19
2019-03-11T22:53:46.216Z,41.52
2019-03-11T22:56:16.727Z,41.33
2019-03-11T22:58:47.760Z,41.21
2019-03-11T23:01:20.903Z,41.51
2019-03-11T23:03:52.706Z,41.92
2019-03-11T23:06:22.941Z,42.13
2019-03-11T23:08:54.411Z,43.18
2019-03-11T23:11:24.563Z,43.03
2019-03-11T23:13:55.261Z,43.28
2019-03-11T23:16:25.420Z,44.32
2019-03-11T23:18:56.938Z,43.16
2019-03-11T23:21:27.134Z,43.78
2019-03-11T23:24:16.927Z,43.37
2019-03-11T23:26:55.312Z,42.93
2019-03-11T23:29:54.445Z,42.63
2019-03-11T23:32:29.127Z,42.04
2019-03-11T23:34:59.653Z,42.40
2019-03-11T23:37:29.810Z,43.29
2019-03-11T23:40:01.308Z,43.41
2019-03-11T23:42:32.825Z,44.26
2019-03-11T23:45:03.051Z,43.58
2019-03-11T23:47:33.294Z,44.12
2019-03-11T23:50:04.545Z,43.42
2019-03-11T23:52:35.041Z,43.19
2019-03-11T23:55:06.312Z,43.27
2019-03-11T23:57:36.523Z,43.63
